Helsinki/Vantaa

Airport
ICAO code: 
EFHK
Summary
ICAO Region: 
EUR
Territory: 
Location: 
Helsinki, Finland,
Elevation: 
179 ft
Coordinates: 
Aerial View: 
60° 19' 1.92" N, 24° 57' 47.884" E
Metar
Observation
EFHK 262120Z 19007KT 4000 -RASN BKN003 01/00 Q1001 TEMPO 5000
Station
Helsinki-Vantaa
Date/Time
2022-01-26 21:20:00
Wind direction
190°
Wind speed
07 kts
Lowest cloud amount
broken clouds
Temperature
1°C
Dew point
0°C
Humidity
93%
QNH
1001 hPa
Weather condition
n/a

Description

International airport serving capital city of Finland.

Climatology

Humid Continental climate (Köppen climate classification Dfb) - Variable weather patterns and a large seasonal temperature variance. Summers are often warm and humid with frequent thunderstorms and winters can be very cold with frequent snowfall and persistent snow cover.

Runways

Designator Length Width Surface Rops
15/33 2901 60 ASP Yes/Yes
04L/22R 3060 60 ASP Yes/Yes
04R/22L 3440 60 ASP Yes/Yes

SKYbrary Partners:

Safety knowledge contributed by: